sensor_id;sensor_type;location;lat;lon;timestamp;P1;durP1;ratioP1;P2;durP2;ratioP2
15573;SDS011;7888;46.748;8.102;2023-03-01T00:01:11;9.50;;;8.03;;
15573;SDS011;7888;46.748;8.102;2023-03-01T00:03:40;9.70;;;8.03;;
15573;SDS011;7888;46.748;8.102;2023-03-01T00:06:07;9.87;;;8.23;;
15573;SDS011;7888;46.748;8.102;2023-03-01T00:08:34;8.77;;;7.87;;
15573;SDS011;7888;46.748;8.102;2023-03-01T00:13:34;9.90;;;7.97;;
15573;SDS011;7888;46.748;8.102;2023-03-01T00:16:04;8.97;;;8.07;;
15573;SDS011;7888;46.748;8.102;2023-03-01T00:18:34;9.03;;;8.13;;
15573;SDS011;7888;46.748;8.102;2023-03-01T00:21:00;9.30;;;8.27;;
15573;SDS011;7888;46.748;8.102;2023-03-01T00:23:26;9.03;;;8.13;;
15573;SDS011;7888;46.748;8.102;2023-03-01T00:25:52;9.77;;;8.47;;
15573;SDS011;7888;46.748;8.102;2023-03-01T00:28:19;9.13;;;8.10;;
15573;SDS011;7888;46.748;8.102;2023-03-01T00:30:45;10.03;;;8.47;;
15573;SDS011;7888;46.748;8.102;2023-03-01T00:33:12;9.17;;;7.67;;
15573;SDS011;7888;46.748;8.102;2023-03-01T00:35:38;9.53;;;8.03;;
15573;SDS011;7888;46.748;8.102;2023-03-01T00:38:04;10.80;;;8.40;;
15573;SDS011;7888;46.748;8.102;2023-03-01T00:40:32;9.47;;;8.20;;
15573;SDS011;7888;46.748;8.102;2023-03-01T00:43:00;9.10;;;8.17;;
15573;SDS011;7888;46.748;8.102;2023-03-01T00:45:27;9.63;;;8.63;;
15573;SDS011;7888;46.748;8.102;2023-03-01T00:47:54;8.93;;;7.70;;
15573;SDS011;7888;46.748;8.102;2023-03-01T00:50:20;10.27;;;8.43;;
15573;SDS011;7888;46.748;8.102;2023-03-01T00:52:46;9.13;;;8.10;;
15573;SDS011;7888;46.748;8.102;2023-03-01T00:55:12;10.27;;;8.90;;
15573;SDS011;7888;46.748;8.102;2023-03-01T00:57:37;9.23;;;8.10;;
15573;SDS011;7888;46.748;8.102;2023-03-01T01:00:04;10.30;;;9.07;;
15573;SDS011;7888;46.748;8.102;2023-03-01T01:02:32;10.87;;;9.00;;
15573;SDS011;7888;46.748;8.102;2023-03-01T01:04:58;9.37;;;8.40;;
15573;SDS011;7888;46.748;8.102;2023-03-01T01:07:25;10.43;;;8.97;;
15573;SDS011;7888;46.748;8.102;2023-03-01T01:09:51;11.13;;;9.07;;
15573;SDS011;7888;46.748;8.102;2023-03-01T01:12:17;10.33;;;8.97;;
15573;SDS011;7888;46.748;8.102;2023-03-01T01:14:42;10.00;;;8.50;;
15573;SDS011;7888;46.748;8.102;2023-03-01T01:17:08;10.67;;;9.10;;
15573;SDS011;7888;46.748;8.102;2023-03-01T01:19:34;11.73;;;9.87;;
15573;SDS011;7888;46.748;8.102;2023-03-01T01:22:00;11.30;;;8.87;;
15573;SDS011;7888;46.748;8.102;2023-03-01T01:24:27;12.60;;;9.83;;
15573;SDS011;7888;46.748;8.102;2023-03-01T01:26:52;9.67;;;8.37;;
15573;SDS011;7888;46.748;8.102;2023-03-01T01:29:18;10.83;;;8.67;;
15573;SDS011;7888;46.748;8.102;2023-03-01T01:31:44;10.57;;;9.37;;
15573;SDS011;7888;46.748;8.102;2023-03-01T01:34:14;10.53;;;8.77;;
15573;SDS011;7888;46.748;8.102;2023-03-01T01:36:43;10.73;;;8.80;;
15573;SDS011;7888;46.748;8.102;2023-03-01T01:39:14;10.07;;;8.77;;
15573;SDS011;7888;46.748;8.102;2023-03-01T01:41:41;9.93;;;8.40;;
15573;SDS011;7888;46.748;8.102;2023-03-01T01:47:06;11.87;;;9.20;;
15573;SDS011;7888;46.748;8.102;2023-03-01T01:52:22;10.10;;;8.37;;
15573;SDS011;7888;46.748;8.102;2023-03-01T01:57:26;11.50;;;8.67;;
15573;SDS011;7888;46.748;8.102;2023-03-01T02:00:00;11.20;;;9.47;;
15573;SDS011;7888;46.748;8.102;2023-03-01T02:02:38;10.83;;;9.30;;
15573;SDS011;7888;46.748;8.102;2023-03-01T02:08:04;11.53;;;9.20;;
15573;SDS011;7888;46.748;8.102;2023-03-01T02:10:31;12.00;;;9.40;;
15573;SDS011;7888;46.748;8.102;2023-03-01T02:13:00;11.77;;;9.40;;
15573;SDS011;7888;46.748;8.102;2023-03-01T02:15:31;11.47;;;9.47;;
15573;SDS011;7888;46.748;8.102;2023-03-01T02:17:58;11.03;;;8.90;;
15573;SDS011;7888;46.748;8.102;2023-03-01T02:20:30;12.17;;;8.97;;
15573;SDS011;7888;46.748;8.102;2023-03-01T02:23:33;11.37;;;8.80;;
15573;SDS011;7888;46.748;8.102;2023-03-01T02:28:38;10.83;;;9.23;;
15573;SDS011;7888;46.748;8.102;2023-03-01T02:31:08;10.40;;;8.80;;
15573;SDS011;7888;46.748;8.102;2023-03-01T02:33:56;11.67;;;9.13;;
15573;SDS011;7888;46.748;8.102;2023-03-01T02:36:24;9.87;;;8.87;;
15573;SDS011;7888;46.748;8.102;2023-03-01T02:38:58;11.00;;;9.00;;
15573;SDS011;7888;46.748;8.102;2023-03-01T02:41:30;9.63;;;8.17;;
15573;SDS011;7888;46.748;8.102;2023-03-01T02:44:01;10.53;;;8.80;;
15573;SDS011;7888;46.748;8.102;2023-03-01T02:46:29;10.53;;;8.67;;
15573;SDS011;7888;46.748;8.102;2023-03-01T02:48:55;11.00;;;9.10;;
15573;SDS011;7888;46.748;8.102;2023-03-01T02:54:01;10.83;;;8.87;;
15573;SDS011;7888;46.748;8.102;2023-03-01T02:56:35;10.93;;;9.00;;
15573;SDS011;7888;46.748;8.102;2023-03-01T02:59:01;12.07;;;8.97;;
15573;SDS011;7888;46.748;8.102;2023-03-01T03:01:28;11.83;;;9.53;;
15573;SDS011;7888;46.748;8.102;2023-03-01T03:04:07;11.47;;;9.20;;
15573;SDS011;7888;46.748;8.102;2023-03-01T03:06:45;11.53;;;8.93;;
15573;SDS011;7888;46.748;8.102;2023-03-01T03:09:14;10.50;;;8.73;;
15573;SDS011;7888;46.748;8.102;2023-03-01T03:11:42;13.47;;;9.57;;
15573;SDS011;7888;46.748;8.102;2023-03-01T03:14:09;10.70;;;9.00;;
15573;SDS011;7888;46.748;8.102;2023-03-01T03:16:43;11.13;;;8.97;;
15573;SDS011;7888;46.748;8.102;2023-03-01T03:19:12;10.63;;;9.27;;
15573;SDS011;7888;46.748;8.102;2023-03-01T03:21:39;10.63;;;9.30;;
15573;SDS011;7888;46.748;8.102;2023-03-01T03:24:05;11.50;;;9.60;;
15573;SDS011;7888;46.748;8.102;2023-03-01T03:26:31;11.37;;;8.77;;
15573;SDS011;7888;46.748;8.102;2023-03-01T03:28:57;11.70;;;8.90;;
15573;SDS011;7888;46.748;8.102;2023-03-01T03:31:23;11.90;;;9.63;;
15573;SDS011;7888;46.748;8.102;2023-03-01T03:33:50;11.77;;;9.80;;
15573;SDS011;7888;46.748;8.102;2023-03-01T03:36:16;10.17;;;8.93;;
15573;SDS011;7888;46.748;8.102;2023-03-01T03:38:45;13.43;;;10.90;;
15573;SDS011;7888;46.748;8.102;2023-03-01T03:41:12;12.60;;;10.20;;
15573;SDS011;7888;46.748;8.102;2023-03-01T03:43:39;10.10;;;8.60;;
15573;SDS011;7888;46.748;8.102;2023-03-01T03:46:07;11.40;;;9.53;;
15573;SDS011;7888;46.748;8.102;2023-03-01T03:48:37;11.53;;;9.47;;
15573;SDS011;7888;46.748;8.102;2023-03-01T03:51:05;11.90;;;10.10;;
15573;SDS011;7888;46.748;8.102;2023-03-01T03:53:32;12.00;;;9.30;;
15573;SDS011;7888;46.748;8.102;2023-03-01T03:55:58;10.70;;;8.43;;
15573;SDS011;7888;46.748;8.102;2023-03-01T03:58:25;11.27;;;9.50;;
15573;SDS011;7888;46.748;8.102;2023-03-01T04:00:52;12.07;;;9.53;;
15573;SDS011;7888;46.748;8.102;2023-03-01T04:03:22;12.77;;;9.63;;
15573;SDS011;7888;46.748;8.102;2023-03-01T04:05:50;14.63;;;10.03;;
15573;SDS011;7888;46.748;8.102;2023-03-01T04:08:18;15.20;;;11.10;;
15573;SDS011;7888;46.748;8.102;2023-03-01T04:10:46;13.43;;;10.63;;
15573;SDS011;7888;46.748;8.102;2023-03-01T04:13:19;12.53;;;10.07;;
15573;SDS011;7888;46.748;8.102;2023-03-01T04:15:50;12.63;;;9.97;;
15573;SDS011;7888;46.748;8.102;2023-03-01T04:18:18;12.70;;;9.87;;
15573;SDS011;7888;46.748;8.102;2023-03-01T04:20:46;11.70;;;9.30;;
15573;SDS011;7888;46.748;8.102;2023-03-01T04:23:17;13.90;;;10.67;;
15573;SDS011;7888;46.748;8.102;2023-03-01T04:25:55;12.13;;;9.73;;
15573;SDS011;7888;46.748;8.102;2023-03-01T04:28:24;13.13;;;10.57;;
15573;SDS011;7888;46.748;8.102;2023-03-01T04:30:55;12.77;;;10.50;;
15573;SDS011;7888;46.748;8.102;2023-03-01T04:33:24;14.57;;;11.03;;
15573;SDS011;7888;46.748;8.102;2023-03-01T04:35:51;15.87;;;11.23;;
15573;SDS011;7888;46.748;8.102;2023-03-01T04:38:17;14.80;;;11.00;;
15573;SDS011;7888;46.748;8.102;2023-03-01T04:40:44;14.40;;;11.17;;
15573;SDS011;7888;46.748;8.102;2023-03-01T04:43:11;14.87;;;10.83;;
15573;SDS011;7888;46.748;8.102;2023-03-01T04:45:40;15.80;;;11.33;;
15573;SDS011;7888;46.748;8.102;2023-03-01T04:48:07;15.03;;;11.43;;
15573;SDS011;7888;46.748;8.102;2023-03-01T04:50:33;13.77;;;10.13;;
15573;SDS011;7888;46.748;8.102;2023-03-01T04:52:59;13.83;;;10.43;;
15573;SDS011;7888;46.748;8.102;2023-03-01T04:55:26;13.17;;;10.30;;
15573;SDS011;7888;46.748;8.102;2023-03-01T04:57:53;13.60;;;10.60;;
15573;SDS011;7888;46.748;8.102;2023-03-01T05:00:20;14.73;;;10.47;;
15573;SDS011;7888;46.748;8.102;2023-03-01T05:02:52;13.47;;;10.97;;
15573;SDS011;7888;46.748;8.102;2023-03-01T05:05:26;14.37;;;10.97;;
15573;SDS011;7888;46.748;8.102;2023-03-01T05:07:59;14.47;;;10.37;;
15573;SDS011;7888;46.748;8.102;2023-03-01T05:10:29;15.70;;;10.63;;
15573;SDS011;7888;46.748;8.102;2023-03-01T05:12:57;12.67;;;10.00;;
15573;SDS011;7888;46.748;8.102;2023-03-01T05:15:24;13.67;;;10.13;;
15573;SDS011;7888;46.748;8.102;2023-03-01T05:17:53;14.07;;;10.63;;
15573;SDS011;7888;46.748;8.102;2023-03-01T05:20:24;14.47;;;10.73;;
15573;SDS011;7888;46.748;8.102;2023-03-01T05:22:52;13.87;;;10.47;;
15573;SDS011;7888;46.748;8.102;2023-03-01T05:25:23;12.77;;;9.97;;
15573;SDS011;7888;46.748;8.102;2023-03-01T05:27:50;13.77;;;10.63;;
15573;SDS011;7888;46.748;8.102;2023-03-01T05:30:16;13.83;;;11.20;;
15573;SDS011;7888;46.748;8.102;2023-03-01T05:32:44;14.90;;;10.97;;
15573;SDS011;7888;46.748;8.102;2023-03-01T05:35:15;14.40;;;11.20;;
15573;SDS011;7888;46.748;8.102;2023-03-01T05:37:43;14.10;;;10.77;;
15573;SDS011;7888;46.748;8.102;2023-03-01T05:40:11;14.93;;;10.47;;
15573;SDS011;7888;46.748;8.102;2023-03-01T05:42:47;15.50;;;10.93;;
15573;SDS011;7888;46.748;8.102;2023-03-01T05:45:19;16.37;;;11.97;;
15573;SDS011;7888;46.748;8.102;2023-03-01T05:47:47;15.67;;;11.43;;
15573;SDS011;7888;46.748;8.102;2023-03-01T05:50:19;15.10;;;11.40;;
15573;SDS011;7888;46.748;8.102;2023-03-01T05:52:48;15.97;;;11.37;;
15573;SDS011;7888;46.748;8.102;2023-03-01T05:55:18;15.23;;;11.87;;
15573;SDS011;7888;46.748;8.102;2023-03-01T05:57:46;16.07;;;12.20;;
15573;SDS011;7888;46.748;8.102;2023-03-01T06:00:13;17.33;;;12.93;;
15573;SDS011;7888;46.748;8.102;2023-03-01T06:02:41;15.50;;;12.67;;
15573;SDS011;7888;46.748;8.102;2023-03-01T06:05:07;16.47;;;12.40;;
15573;SDS011;7888;46.748;8.102;2023-03-01T06:07:36;15.10;;;11.73;;
15573;SDS011;7888;46.748;8.102;2023-03-01T06:10:03;14.40;;;11.03;;
15573;SDS011;7888;46.748;8.102;2023-03-01T06:12:31;16.33;;;12.00;;
15573;SDS011;7888;46.748;8.102;2023-03-01T06:14:59;16.03;;;11.80;;
15573;SDS011;7888;46.748;8.102;2023-03-01T06:17:25;15.27;;;11.90;;
15573;SDS011;7888;46.748;8.102;2023-03-01T06:19:51;15.23;;;11.80;;
15573;SDS011;7888;46.748;8.102;2023-03-01T06:22:16;15.07;;;11.90;;
15573;SDS011;7888;46.748;8.102;2023-03-01T06:24:42;15.50;;;11.30;;
15573;SDS011;7888;46.748;8.102;2023-03-01T06:27:08;16.77;;;12.33;;
15573;SDS011;7888;46.748;8.102;2023-03-01T06:29:34;16.33;;;12.07;;
15573;SDS011;7888;46.748;8.102;2023-03-01T06:31:59;14.60;;;10.90;;
15573;SDS011;7888;46.748;8.102;2023-03-01T06:34:25;16.90;;;12.63;;
15573;SDS011;7888;46.748;8.102;2023-03-01T06:36:51;16.13;;;12.27;;
15573;SDS011;7888;46.748;8.102;2023-03-01T06:39:17;18.13;;;11.93;;
15573;SDS011;7888;46.748;8.102;2023-03-01T06:41:43;14.60;;;11.03;;
15573;SDS011;7888;46.748;8.102;2023-03-01T06:44:09;14.50;;;11.40;;
15573;SDS011;7888;46.748;8.102;2023-03-01T06:46:35;16.90;;;12.17;;
15573;SDS011;7888;46.748;8.102;2023-03-01T06:49:01;16.83;;;11.93;;
15573;SDS011;7888;46.748;8.102;2023-03-01T06:51:32;15.30;;;11.97;;
15573;SDS011;7888;46.748;8.102;2023-03-01T06:53:58;15.63;;;11.90;;
15573;SDS011;7888;46.748;8.102;2023-03-01T06:56:24;16.47;;;12.20;;
15573;SDS011;7888;46.748;8.102;2023-03-01T06:58:49;14.07;;;11.20;;
15573;SDS011;7888;46.748;8.102;2023-03-01T07:01:15;15.20;;;11.50;;
15573;SDS011;7888;46.748;8.102;2023-03-01T07:03:41;16.30;;;11.50;;
15573;SDS011;7888;46.748;8.102;2023-03-01T07:06:09;14.77;;;11.57;;
15573;SDS011;7888;46.748;8.102;2023-03-01T07:08:35;16.57;;;12.10;;
15573;SDS011;7888;46.748;8.102;2023-03-01T07:11:01;16.17;;;11.40;;
15573;SDS011;7888;46.748;8.102;2023-03-01T07:13:30;16.30;;;12.20;;
15573;SDS011;7888;46.748;8.102;2023-03-01T07:15:57;15.67;;;11.97;;
15573;SDS011;7888;46.748;8.102;2023-03-01T07:18:23;14.63;;;11.37;;
15573;SDS011;7888;46.748;8.102;2023-03-01T07:20:49;15.57;;;12.00;;
15573;SDS011;7888;46.748;8.102;2023-03-01T07:23:15;15.23;;;11.77;;
15573;SDS011;7888;46.748;8.102;2023-03-01T07:25:41;14.33;;;10.97;;
15573;SDS011;7888;46.748;8.102;2023-03-01T07:28:07;17.17;;;12.50;;
15573;SDS011;7888;46.748;8.102;2023-03-01T07:30:32;14.60;;;12.00;;
15573;SDS011;7888;46.748;8.102;2023-03-01T07:32:58;18.80;;;13.40;;
15573;SDS011;7888;46.748;8.102;2023-03-01T07:35:25;16.83;;;12.47;;
15573;SDS011;7888;46.748;8.102;2023-03-01T07:37:52;18.43;;;12.60;;
15573;SDS011;7888;46.748;8.102;2023-03-01T07:40:18;13.97;;;10.70;;
15573;SDS011;7888;46.748;8.102;2023-03-01T07:42:45;14.90;;;11.90;;
15573;SDS011;7888;46.748;8.102;2023-03-01T07:45:11;17.83;;;13.10;;
15573;SDS011;7888;46.748;8.102;2023-03-01T07:47:38;16.57;;;11.83;;
15573;SDS011;7888;46.748;8.102;2023-03-01T07:50:04;14.77;;;12.10;;
15573;SDS011;7888;46.748;8.102;2023-03-01T07:52:30;16.73;;;12.40;;
15573;SDS011;7888;46.748;8.102;2023-03-01T07:54:57;15.30;;;11.20;;
15573;SDS011;7888;46.748;8.102;2023-03-01T07:57:23;14.80;;;11.33;;
15573;SDS011;7888;46.748;8.102;2023-03-01T07:59:49;16.27;;;12.33;;
15573;SDS011;7888;46.748;8.102;2023-03-01T08:02:15;17.87;;;12.70;;
15573;SDS011;7888;46.748;8.102;2023-03-01T08:04:41;15.67;;;11.97;;
15573;SDS011;7888;46.748;8.102;2023-03-01T08:07:07;15.67;;;12.37;;
15573;SDS011;7888;46.748;8.102;2023-03-01T08:09:34;17.23;;;13.20;;
15573;SDS011;7888;46.748;8.102;2023-03-01T08:12:02;16.63;;;12.37;;
15573;SDS011;7888;46.748;8.102;2023-03-01T08:14:29;17.70;;;12.27;;
15573;SDS011;7888;46.748;8.102;2023-03-01T08:16:59;16.23;;;12.70;;
15573;SDS011;7888;46.748;8.102;2023-03-01T08:19:27;16.40;;;12.80;;
15573;SDS011;7888;46.748;8.102;2023-03-01T08:21:53;17.50;;;13.40;;
15573;SDS011;7888;46.748;8.102;2023-03-01T08:24:19;18.83;;;12.77;;
15573;SDS011;7888;46.748;8.102;2023-03-01T08:26:45;16.60;;;12.27;;
15573;SDS011;7888;46.748;8.102;2023-03-01T08:29:11;17.30;;;13.23;;
15573;SDS011;7888;46.748;8.102;2023-03-01T08:31:38;16.90;;;12.63;;
15573;SDS011;7888;46.748;8.102;2023-03-01T08:34:06;17.13;;;12.23;;
15573;SDS011;7888;46.748;8.102;2023-03-01T08:36:38;16.10;;;11.57;;
15573;SDS011;7888;46.748;8.102;2023-03-01T08:39:11;14.73;;;11.27;;
15573;SDS011;7888;46.748;8.102;2023-03-01T08:41:40;15.40;;;11.20;;
15573;SDS011;7888;46.748;8.102;2023-03-01T08:44:06;16.83;;;11.57;;
15573;SDS011;7888;46.748;8.102;2023-03-01T08:46:36;15.73;;;11.97;;
15573;SDS011;7888;46.748;8.102;2023-03-01T08:49:08;17.77;;;13.23;;
15573;SDS011;7888;46.748;8.102;2023-03-01T08:51:44;15.43;;;11.63;;
15573;SDS011;7888;46.748;8.102;2023-03-01T08:54:12;15.90;;;11.97;;
15573;SDS011;7888;46.748;8.102;2023-03-01T08:56:42;15.97;;;11.07;;
15573;SDS011;7888;46.748;8.102;2023-03-01T08:59:09;16.50;;;12.10;;
15573;SDS011;7888;46.748;8.102;2023-03-01T09:01:40;15.37;;;11.50;;
15573;SDS011;7888;46.748;8.102;2023-03-01T09:04:09;16.77;;;11.60;;
15573;SDS011;7888;46.748;8.102;2023-03-01T09:06:37;15.43;;;11.80;;
15573;SDS011;7888;46.748;8.102;2023-03-01T09:09:03;17.63;;;12.03;;
15573;SDS011;7888;46.748;8.102;2023-03-01T09:11:36;15.83;;;11.27;;
15573;SDS011;7888;46.748;8.102;2023-03-01T09:14:04;17.73;;;10.60;;
15573;SDS011;7888;46.748;8.102;2023-03-01T09:16:30;15.13;;;11.20;;
15573;SDS011;7888;46.748;8.102;2023-03-01T09:19:00;12.87;;;10.30;;
15573;SDS011;7888;46.748;8.102;2023-03-01T09:21:28;17.13;;;11.03;;
15573;SDS011;7888;46.748;8.102;2023-03-01T09:23:55;15.10;;;11.67;;
15573;SDS011;7888;46.748;8.102;2023-03-01T09:26:22;14.73;;;11.13;;
15573;SDS011;7888;46.748;8.102;2023-03-01T09:28:49;16.23;;;11.10;;
15573;SDS011;7888;46.748;8.102;2023-03-01T09:31:20;13.00;;;9.83;;
15573;SDS011;7888;46.748;8.102;2023-03-01T09:33:48;15.47;;;11.63;;
15573;SDS011;7888;46.748;8.102;2023-03-01T09:36:18;15.70;;;11.53;;
15573;SDS011;7888;46.748;8.102;2023-03-01T09:38:47;16.53;;;11.33;;
15573;SDS011;7888;46.748;8.102;2023-03-01T09:44:10;17.17;;;11.30;;
15573;SDS011;7888;46.748;8.102;2023-03-01T09:47:12;16.17;;;11.17;;
15573;SDS011;7888;46.748;8.102;2023-03-01T09:49:52;15.37;;;11.77;;
15573;SDS011;7888;46.748;8.102;2023-03-01T09:55:31;15.13;;;11.43;;
15573;SDS011;7888;46.748;8.102;2023-03-01T10:01:38;17.97;;;11.23;;
15573;SDS011;7888;46.748;8.102;2023-03-01T10:09:54;16.83;;;11.10;;
15573;SDS011;7888;46.748;8.102;2023-03-01T10:12:22;14.77;;;11.30;;
15573;SDS011;7888;46.748;8.102;2023-03-01T10:17:39;16.10;;;11.30;;
15573;SDS011;7888;46.748;8.102;2023-03-01T10:20:36;15.33;;;10.77;;
15573;SDS011;7888;46.748;8.102;2023-03-01T10:23:13;17.47;;;11.47;;
15573;SDS011;7888;46.748;8.102;2023-03-01T10:31:29;15.77;;;11.93;;
15573;SDS011;7888;46.748;8.102;2023-03-01T10:34:19;14.77;;;10.37;;
15573;SDS011;7888;46.748;8.102;2023-03-01T10:36:58;16.33;;;11.03;;
15573;SDS011;7888;46.748;8.102;2023-03-01T10:40:00;13.97;;;10.63;;
15573;SDS011;7888;46.748;8.102;2023-03-01T10:42:38;16.70;;;11.73;;
15573;SDS011;7888;46.748;8.102;2023-03-01T10:47:44;15.03;;;11.23;;
15573;SDS011;7888;46.748;8.102;2023-03-01T10:50:20;15.17;;;11.30;;
15573;SDS011;7888;46.748;8.102;2023-03-01T10:52:58;15.37;;;11.53;;
15573;SDS011;7888;46.748;8.102;2023-03-01T10:55:34;14.00;;;11.63;;
15573;SDS011;7888;46.748;8.102;2023-03-01T11:00:46;15.33;;;11.60;;
15573;SDS011;7888;46.748;8.102;2023-03-01T11:03:23;13.67;;;10.83;;
15573;SDS011;7888;46.748;8.102;2023-03-01T11:06:01;14.83;;;11.37;;
15573;SDS011;7888;46.748;8.102;2023-03-01T11:08:41;17.27;;;12.30;;
15573;SDS011;7888;46.748;8.102;2023-03-01T11:11:29;16.03;;;12.30;;
15573;SDS011;7888;46.748;8.102;2023-03-01T11:14:12;15.77;;;11.80;;
15573;SDS011;7888;46.748;8.102;2023-03-01T11:16:48;14.67;;;10.73;;
15573;SDS011;7888;46.748;8.102;2023-03-01T11:19:48;14.40;;;10.77;;
15573;SDS011;7888;46.748;8.102;2023-03-01T11:22:29;15.23;;;10.97;;
15573;SDS011;7888;46.748;8.102;2023-03-01T11:24:59;12.93;;;10.50;;
15573;SDS011;7888;46.748;8.102;2023-03-01T11:27:27;13.97;;;11.23;;
15573;SDS011;7888;46.748;8.102;2023-03-01T11:30:07;14.13;;;10.97;;
15573;SDS011;7888;46.748;8.102;2023-03-01T11:32:47;16.60;;;11.07;;
15573;SDS011;7888;46.748;8.102;2023-03-01T11:35:45;15.97;;;11.27;;
15573;SDS011;7888;46.748;8.102;2023-03-01T11:38:27;13.13;;;10.67;;
15573;SDS011;7888;46.748;8.102;2023-03-01T11:41:15;14.53;;;10.97;;
15573;SDS011;7888;46.748;8.102;2023-03-01T11:43:51;14.63;;;11.40;;
15573;SDS011;7888;46.748;8.102;2023-03-01T11:46:47;15.13;;;11.60;;
15573;SDS011;7888;46.748;8.102;2023-03-01T11:49:51;15.37;;;11.37;;
15573;SDS011;7888;46.748;8.102;2023-03-01T11:58:43;15.43;;;11.63;;
15573;SDS011;7888;46.748;8.102;2023-03-01T12:15:39;16.20;;;12.23;;
15573;SDS011;7888;46.748;8.102;2023-03-01T12:33:19;17.37;;;11.97;;
15573;SDS011;7888;46.748;8.102;2023-03-01T12:51:01;15.90;;;13.23;;
15573;SDS011;7888;46.748;8.102;2023-03-01T12:53:39;16.43;;;12.57;;
15573;SDS011;7888;46.748;8.102;2023-03-01T12:56:13;17.03;;;12.43;;
15573;SDS011;7888;46.748;8.102;2023-03-01T12:58:50;13.37;;;10.83;;
15573;SDS011;7888;46.748;8.102;2023-03-01T13:04:23;15.60;;;12.07;;
15573;SDS011;7888;46.748;8.102;2023-03-01T13:10:27;14.90;;;11.70;;
15573;SDS011;7888;46.748;8.102;2023-03-01T13:13:18;15.27;;;11.17;;
15573;SDS011;7888;46.748;8.102;2023-03-01T13:15:52;15.87;;;12.27;;
15573;SDS011;7888;46.748;8.102;2023-03-01T13:20:45;14.97;;;12.00;;
15573;SDS011;7888;46.748;8.102;2023-03-01T13:33:44;15.03;;;12.27;;
15573;SDS011;7888;46.748;8.102;2023-03-01T13:38:56;14.97;;;11.70;;
15573;SDS011;7888;46.748;8.102;2023-03-01T13:46:53;14.40;;;11.40;;
15573;SDS011;7888;46.748;8.102;2023-03-01T13:49:28;14.00;;;11.53;;
15573;SDS011;7888;46.748;8.102;2023-03-01T13:57:42;15.10;;;11.70;;
15573;SDS011;7888;46.748;8.102;2023-03-01T14:00:25;15.50;;;11.87;;
15573;SDS011;7888;46.748;8.102;2023-03-01T14:05:59;13.77;;;10.90;;
15573;SDS011;7888;46.748;8.102;2023-03-01T14:08:36;14.77;;;11.40;;
15573;SDS011;7888;46.748;8.102;2023-03-01T14:13:53;12.67;;;10.37;;
15573;SDS011;7888;46.748;8.102;2023-03-01T14:17:15;12.87;;;10.93;;
15573;SDS011;7888;46.748;8.102;2023-03-01T14:19:55;11.97;;;10.70;;
15573;SDS011;7888;46.748;8.102;2023-03-01T14:22:33;13.77;;;11.23;;
15573;SDS011;7888;46.748;8.102;2023-03-01T14:25:04;12.73;;;10.57;;
15573;SDS011;7888;46.748;8.102;2023-03-01T14:27:44;13.47;;;11.03;;
15573;SDS011;7888;46.748;8.102;2023-03-01T14:30:19;13.93;;;10.60;;
15573;SDS011;7888;46.748;8.102;2023-03-01T14:32:57;12.00;;;10.47;;
15573;SDS011;7888;46.748;8.102;2023-03-01T14:35:27;12.50;;;10.87;;
15573;SDS011;7888;46.748;8.102;2023-03-01T14:37:56;13.53;;;10.57;;
15573;SDS011;7888;46.748;8.102;2023-03-01T14:40:25;15.50;;;11.27;;
15573;SDS011;7888;46.748;8.102;2023-03-01T14:43:01;12.73;;;10.70;;
15573;SDS011;7888;46.748;8.102;2023-03-01T14:45:35;11.60;;;10.37;;
15573;SDS011;7888;46.748;8.102;2023-03-01T14:48:02;12.47;;;10.60;;
15573;SDS011;7888;46.748;8.102;2023-03-01T14:50:32;13.23;;;10.60;;
15573;SDS011;7888;46.748;8.102;2023-03-01T14:53:05;14.07;;;10.50;;
15573;SDS011;7888;46.748;8.102;2023-03-01T14:55:40;12.43;;;10.80;;
15573;SDS011;7888;46.748;8.102;2023-03-01T14:58:15;13.30;;;11.00;;
15573;SDS011;7888;46.748;8.102;2023-03-01T15:00:50;14.50;;;11.20;;
15573;SDS011;7888;46.748;8.102;2023-03-01T15:03:27;13.23;;;11.83;;
15573;SDS011;7888;46.748;8.102;2023-03-01T15:06:02;14.10;;;10.70;;
15573;SDS011;7888;46.748;8.102;2023-03-01T15:08:31;13.07;;;10.90;;
15573;SDS011;7888;46.748;8.102;2023-03-01T15:11:19;12.53;;;10.77;;
15573;SDS011;7888;46.748;8.102;2023-03-01T15:13:53;13.77;;;10.33;;
15573;SDS011;7888;46.748;8.102;2023-03-01T15:16:24;12.47;;;10.70;;
15573;SDS011;7888;46.748;8.102;2023-03-01T15:18:55;13.53;;;11.20;;
15573;SDS011;7888;46.748;8.102;2023-03-01T15:21:26;11.63;;;10.43;;
15573;SDS011;7888;46.748;8.102;2023-03-01T15:26:45;13.07;;;10.80;;
15573;SDS011;7888;46.748;8.102;2023-03-01T15:29:24;12.63;;;10.50;;
15573;SDS011;7888;46.748;8.102;2023-03-01T15:34:47;12.60;;;9.87;;
15573;SDS011;7888;46.748;8.102;2023-03-01T15:40:17;13.00;;;10.23;;
15573;SDS011;7888;46.748;8.102;2023-03-01T15:42:56;13.37;;;10.63;;
15573;SDS011;7888;46.748;8.102;2023-03-01T15:45:28;13.63;;;10.63;;
15573;SDS011;7888;46.748;8.102;2023-03-01T15:48:05;11.87;;;10.13;;
15573;SDS011;7888;46.748;8.102;2023-03-01T15:50:58;12.67;;;10.67;;
15573;SDS011;7888;46.748;8.102;2023-03-01T15:53:26;11.67;;;9.73;;
15573;SDS011;7888;46.748;8.102;2023-03-01T15:55:53;12.17;;;10.20;;
15573;SDS011;7888;46.748;8.102;2023-03-01T15:58:20;12.90;;;10.33;;
15573;SDS011;7888;46.748;8.102;2023-03-01T16:00:49;12.23;;;10.30;;
15573;SDS011;7888;46.748;8.102;2023-03-01T16:03:21;13.37;;;10.07;;
15573;SDS011;7888;46.748;8.102;2023-03-01T16:05:50;13.77;;;11.50;;
15573;SDS011;7888;46.748;8.102;2023-03-01T16:08:17;12.60;;;10.80;;
15573;SDS011;7888;46.748;8.102;2023-03-01T16:10:43;16.23;;;11.47;;
15573;SDS011;7888;46.748;8.102;2023-03-01T16:13:13;12.67;;;10.57;;
15573;SDS011;7888;46.748;8.102;2023-03-01T16:15:39;12.67;;;9.47;;
15573;SDS011;7888;46.748;8.102;2023-03-01T16:18:06;13.03;;;10.30;;
15573;SDS011;7888;46.748;8.102;2023-03-01T16:20:33;13.23;;;11.07;;
15573;SDS011;7888;46.748;8.102;2023-03-01T16:23:03;12.70;;;10.13;;
15573;SDS011;7888;46.748;8.102;2023-03-01T16:25:32;13.27;;;10.67;;
15573;SDS011;7888;46.748;8.102;2023-03-01T16:27:59;13.30;;;10.70;;
15573;SDS011;7888;46.748;8.102;2023-03-01T16:30:29;13.40;;;11.23;;
15573;SDS011;7888;46.748;8.102;2023-03-01T16:32:55;12.33;;;10.33;;
15573;SDS011;7888;46.748;8.102;2023-03-01T16:35:21;11.20;;;9.80;;
15573;SDS011;7888;46.748;8.102;2023-03-01T16:37:48;13.63;;;11.00;;
15573;SDS011;7888;46.748;8.102;2023-03-01T16:40:21;14.60;;;10.77;;
15573;SDS011;7888;46.748;8.102;2023-03-01T16:42:51;11.83;;;10.50;;
15573;SDS011;7888;46.748;8.102;2023-03-01T16:45:20;11.77;;;10.37;;
15573;SDS011;7888;46.748;8.102;2023-03-01T16:47:46;12.33;;;10.73;;
15573;SDS011;7888;46.748;8.102;2023-03-01T16:50:11;13.43;;;10.20;;
15573;SDS011;7888;46.748;8.102;2023-03-01T16:52:37;11.47;;;10.07;;
15573;SDS011;7888;46.748;8.102;2023-03-01T16:55:04;15.43;;;11.00;;
15573;SDS011;7888;46.748;8.102;2023-03-01T16:57:35;12.83;;;10.13;;
15573;SDS011;7888;46.748;8.102;2023-03-01T17:00:04;12.80;;;10.77;;
15573;SDS011;7888;46.748;8.102;2023-03-01T17:02:32;13.57;;;11.93;;
15573;SDS011;7888;46.748;8.102;2023-03-01T17:05:02;12.83;;;10.77;;
15573;SDS011;7888;46.748;8.102;2023-03-01T17:07:30;15.93;;;11.40;;
15573;SDS011;7888;46.748;8.102;2023-03-01T17:10:01;13.57;;;10.33;;
15573;SDS011;7888;46.748;8.102;2023-03-01T17:12:29;15.17;;;10.33;;
15573;SDS011;7888;46.748;8.102;2023-03-01T17:14:55;12.13;;;9.63;;
15573;SDS011;7888;46.748;8.102;2023-03-01T17:17:21;13.83;;;10.40;;
15573;SDS011;7888;46.748;8.102;2023-03-01T17:19:47;12.50;;;11.00;;
15573;SDS011;7888;46.748;8.102;2023-03-01T17:22:13;13.53;;;11.10;;
15573;SDS011;7888;46.748;8.102;2023-03-01T17:24:40;13.27;;;10.53;;